Orbital elements of ARIANE 44L DEB
| Launched | 14 January 1991 |
| Flight ended | – |
| Launch site | Europe's Spaceport, Kourou, French Guiana |
| Owner | France |
| NORAD ID | 33590 |
| Date fetched |
Epoch osculation |
Inc. [°] |
Ecc. | RA asc node [hr] |
Arg Peri. [°] |
Mean anom [°] |
Mean motion [rev/day] |
Abs. mag |
| Date fetched |
Epoch osculation |
Inc. [°] |
Ecc. | RA asc node [hr] |
Arg Peri. [°] |
Mean anom [°] |
Mean motion [rev/day] |
Abs. mag |
| 2026 May 09 17:57 | 2026 May 05 10:28:00 | 7.2526 | 0.68196 | 8.6731 | 282.4975 | 19.5404 | 2.68377 | – |
| 2026 May 08 17:57 | 2026 May 05 10:28:00 | 7.2526 | 0.68196 | 8.6731 | 282.4975 | 19.5404 | 2.68377 | – |
| 2026 May 07 17:58 | 2026 May 05 10:28:00 | 7.2526 | 0.68196 | 8.6731 | 282.4975 | 19.5404 | 2.68377 | – |
| 2026 May 06 17:57 | 2026 May 05 10:28:00 | 7.2526 | 0.68196 | 8.6731 | 282.4975 | 19.5404 | 2.68377 | – |
| 2026 May 05 17:57 | 2026 May 05 10:28:00 | 7.2526 | 0.68196 | 8.6731 | 282.4975 | 19.5404 | 2.68377 | – |
| 2026 May 04 17:57 | 2026 Apr 30 08:52:35 | 7.2457 | 0.68188 | 8.8401 | 277.6828 | 19.5404 | 2.68377 | – |
| 2026 May 03 17:57 | 2026 Apr 30 08:52:35 | 7.2457 | 0.68188 | 8.8401 | 277.6828 | 19.5404 | 2.68377 | – |
| 2026 May 02 17:57 | 2026 Apr 30 08:52:35 | 7.2457 | 0.68188 | 8.8401 | 277.6828 | 19.5404 | 2.68377 | – |
| 2026 May 01 17:56 | 2026 Apr 30 08:52:35 | 7.2457 | 0.68188 | 8.8401 | 277.6828 | 19.5404 | 2.68377 | – |
| 2026 Apr 30 17:56 | 2026 Apr 30 08:52:35 | 7.2457 | 0.68188 | 8.8401 | 277.6828 | 19.5404 | 2.68377 | – |
| 2026 Apr 29 17:57 | 2026 Apr 24 07:20:34 | 7.2386 | 0.68175 | 9.0394 | 271.9336 | 19.5404 | 2.68377 | – |
| 2026 Apr 28 17:56 | 2026 Apr 24 07:20:34 | 7.2386 | 0.68175 | 9.0394 | 271.9336 | 19.5404 | 2.68377 | – |
| 2026 Apr 27 17:58 | 2026 Apr 24 07:20:34 | 7.2386 | 0.68175 | 9.0394 | 271.9336 | 19.5404 | 2.68377 | – |
| 2026 Apr 26 17:58 | 2026 Apr 24 07:20:34 | 7.2386 | 0.68175 | 9.0394 | 271.9336 | 19.5404 | 2.68377 | – |
| 2026 Apr 25 17:58 | 2026 Apr 24 07:20:34 | 7.2386 | 0.68175 | 9.0394 | 271.9336 | 19.5404 | 2.68377 | – |
| 2026 Apr 24 17:59 | 2026 Apr 24 07:20:34 | 7.2386 | 0.68175 | 9.0394 | 271.9336 | 19.5404 | 2.68377 | – |
| 2026 Apr 23 17:57 | 2026 Apr 19 08:07:52 | 7.2345 | 0.68166 | 9.2026 | 267.2216 | 19.5404 | 2.68377 | – |
| 2026 Apr 22 17:57 | 2026 Apr 19 08:07:52 | 7.2345 | 0.68166 | 9.2026 | 267.2216 | 19.5404 | 2.68377 | – |
| 2026 Apr 21 17:57 | 2026 Apr 19 08:07:52 | 7.2345 | 0.68166 | 9.2026 | 267.2216 | 19.5404 | 2.68377 | – |
| 2026 Apr 20 17:57 | 2026 Apr 19 08:07:52 | 7.2345 | 0.68166 | 9.2026 | 267.2216 | 19.5404 | 2.68377 | – |
| 2026 Apr 19 17:58 | 2026 Apr 19 08:07:52 | 7.2345 | 0.68166 | 9.2026 | 267.2216 | 19.5404 | 2.68377 | – |
| 2026 Apr 18 17:56 | 2026 Apr 12 08:18:00 | 7.2289 | 0.68148 | 9.4312 | 260.6111 | 19.5404 | 2.68377 | – |
| 2026 Apr 16 17:57 | 2026 Apr 12 08:18:00 | 7.2289 | 0.68148 | 9.4312 | 260.6111 | 19.5404 | 2.68377 | – |
| 2026 Apr 14 17:57 | 2026 Apr 12 08:18:00 | 7.2289 | 0.68148 | 9.4312 | 260.6111 | 19.5404 | 2.68377 | – |
| 2026 Apr 13 17:57 | 2026 Apr 12 08:18:00 | 7.2289 | 0.68148 | 9.4312 | 260.6111 | 19.5404 | 2.68377 | – |
| 2026 Apr 12 17:57 | 2026 Apr 06 18:07:45 | 7.2269 | 0.68133 | 9.6132 | 255.3428 | 19.5404 | 2.68377 | – |